»·PEaware :: DAL1411 KCOS-KSLC

DAL1411 :: KCOS-KSLC

FLIGHT INFORMATION

Flight Status: Arrived
Operator:
Delta Air Lines
More flights by this operator :: More flights under this callsign
Pilot: Anonymous 12234 (12234)
Aircraft: BOEING 737-200
(B732)
More flights by this aircraft type
Origin: KCOS City Of Colorado Springs Mun
United States
Destination: KSLC Salt Lake City Intl
United States
More flights between these airports :: More routes between these airports
Route: +BRK V83 PUB J28 HBU JNC J12 HELPR SPANE7
File this flight plan on PilotEdge
Remarks:
Altitude:
(Current/Filed)
28,000ft
Speed:
(Current/Filed)
437kts
Departed: 02-May-18 08:47 PM
Arrived: 02-May-18 10:16 PM
Distance/Time
Traveled:
356nm/1:29
Distance/Time
To Go:
Arrived

Flight Plot

Page will automatically refresh every two minutes.

Flight plan parsing failed; only flown route is shown


Map Options




Map Legend


Flown Route
Filed Route
Departure Airport
Arrival Airport
Navaid (VOR, NDB)
Fix

Horizontal Profiles

Position Reports

Time Latitude Longitude Heading Altitude Ground
Speed
02-May-18 20:05 38.798454 -104.700246 266 6105ft 0kts
02-May-18 20:06 38.798454 -104.700246 266 6104ft 0kts
02-May-18 20:07 38.798454 -104.700246 266 6104ft 0kts
02-May-18 20:08 38.798454 -104.700246 266 6104ft 0kts
02-May-18 20:09 38.798454 -104.700246 266 6104ft 0kts
02-May-18 20:11 38.798454 -104.700246 266 6104ft 0kts
02-May-18 20:12 38.798454 -104.700246 266 6104ft 0kts
02-May-18 20:13 38.798454 -104.700246 266 6104ft 0kts
02-May-18 20:14 38.798454 -104.700246 266 6104ft 0kts
02-May-18 20:15 38.798454 -104.700246 266 6104ft 0kts
02-May-18 20:16 38.798454 -104.700246 266 6104ft 0kts
02-May-18 20:17 38.798454 -104.700246 266 6104ft 0kts
02-May-18 20:18 38.798454 -104.700246 266 6104ft 0kts
02-May-18 20:19 38.798454 -104.700246 266 6104ft 0kts
02-May-18 20:20 38.798454 -104.700246 266 6104ft 0kts
02-May-18 20:21 38.798454 -104.700246 266 6104ft 0kts
02-May-18 20:22 38.798454 -104.700246 266 6104ft 0kts
02-May-18 20:23 38.798454 -104.700246 266 6104ft 0kts
02-May-18 20:24 38.798454 -104.700246 266 6104ft 0kts
02-May-18 20:25 38.798454 -104.700246 266 6104ft 0kts
02-May-18 20:26 38.798454 -104.700246 266 6104ft 0kts
02-May-18 20:27 38.798454 -104.700246 266 6104ft 0kts
02-May-18 20:28 38.798454 -104.700246 266 6104ft 0kts
02-May-18 20:29 38.798455 -104.700211 266 6104ft 2kts
02-May-18 20:30 38.798432 -104.699449 290 6104ft 2kts
02-May-18 20:31 38.798653 -104.699327 0 6104ft 0kts
02-May-18 20:32 38.798653 -104.699327 0 6104ft 0kts
02-May-18 20:33 38.798654 -104.699327 0 6104ft 0kts
02-May-18 20:34 38.798654 -104.699327 0 6104ft 0kts
02-May-18 20:35 38.798656 -104.699327 0 6104ft 0kts
02-May-18 20:36 38.801176 -104.700817 349 6104ft 17kts
02-May-18 20:37 38.802784 -104.695561 88 6104ft 23kts
02-May-18 20:38 38.802469 -104.687206 197 6104ft 7kts
02-May-18 20:39 38.800760 -104.687868 180 6104ft 11kts
02-May-18 20:40 38.795021 -104.687873 179 6104ft 26kts
02-May-18 20:41 38.787911 -104.687925 182 6104ft 24kts
02-May-18 20:42 38.781797 -104.687896 179 6104ft 20kts
02-May-18 20:43 38.779132 -104.687264 91 6104ft 0kts
02-May-18 20:44 38.779132 -104.687264 91 6104ft 0kts
02-May-18 20:45 38.779132 -104.687264 91 6104ft 0kts
02-May-18 20:46 38.780704 -104.685787 0 6104ft 39kts
02-May-18 20:47 38.816709 -104.685781 1 7112ft 167kts
02-May-18 20:48 38.865646 -104.686477 359 8387ft 227kts
02-May-18 20:49 38.925169 -104.663062 48 10737ft 248kts
02-May-18 20:50 38.923337 -104.572435 132 12306ft 304kts
02-May-18 20:51 38.846095 -104.530988 168 14611ft 317kts
02-May-18 20:52 38.759552 -104.512935 161 16176ft 342kts
02-May-18 20:53 38.672699 -104.469207 149 18213ft 337kts
02-May-18 20:54 38.592980 -104.417835 147 20216ft 329kts
02-May-18 20:55 38.517570 -104.361543 148 21725ft 331kts
02-May-18 20:56 38.451866 -104.308797 153 22684ft 339kts
02-May-18 20:57 38.381377 -104.255705 153 23388ft 354kts
02-May-18 20:58 38.298389 -104.198000 171 24434ft 349kts
02-May-18 20:58 38.221970 -104.209476 209 25252ft 343kts
02-May-18 20:59 38.194591 -104.318450 283 26082ft 387kts
02-May-18 21:00 38.241730 -104.440086 289 26868ft 398kts
02-May-18 21:01 38.294581 -104.560183 294 27561ft 406kts
02-May-18 21:02 38.329548 -104.679035 271 27945ft 393kts
02-May-18 21:03 38.339278 -104.816571 266 27946ft 407kts
02-May-18 21:04 38.345135 -104.959362 265 27967ft 417kts
02-May-18 21:05 38.350629 -105.105313 267 27972ft 426kts
02-May-18 21:06 38.359985 -105.252540 268 27963ft 426kts
02-May-18 21:07 38.369885 -105.395120 270 27962ft 422kts
02-May-18 21:08 38.382976 -105.530852 270 27961ft 418kts
02-May-18 21:09 38.395320 -105.656201 269 28025ft 414kts
02-May-18 21:10 38.405608 -105.776738 268 28103ft 411kts
02-May-18 21:11 38.414609 -105.902493 268 28103ft 415kts
02-May-18 21:12 38.421620 -106.040535 264 28101ft 414kts
02-May-18 21:13 38.421713 -106.184108 263 28100ft 416kts
02-May-18 21:14 38.421990 -106.326382 263 28208ft 416kts
02-May-18 21:15 38.422424 -106.466852 263 28123ft 420kts
02-May-18 21:16 38.427560 -106.608486 267 28071ft 425kts
02-May-18 21:17 38.435881 -106.747029 267 28021ft 427kts
02-May-18 21:18 38.444523 -106.887804 268 28020ft 423kts
02-May-18 21:19 38.463176 -107.028771 276 28018ft 427kts
02-May-18 21:20 38.494638 -107.168076 282 28015ft 430kts
02-May-18 21:21 38.544440 -107.301655 290 28016ft 429kts
02-May-18 21:22 38.594782 -107.433590 288 28044ft 416kts
02-May-18 21:23 38.641824 -107.564021 288 28070ft 408kts
02-May-18 21:24 38.682810 -107.684320 285 28054ft 405kts
02-May-18 21:25 38.723943 -107.809766 286 28052ft 405kts
02-May-18 21:26 38.764477 -107.933416 286 28051ft 406kts
02-May-18 21:27 38.804099 -108.058571 285 28050ft 405kts
02-May-18 21:28 38.843762 -108.186001 285 28050ft 404kts
02-May-18 21:29 38.881584 -108.307760 285 28049ft 406kts
02-May-18 21:30 38.921613 -108.431365 289 28034ft 411kts
02-May-18 21:31 38.970543 -108.551954 291 28020ft 414kts
02-May-18 21:32 39.017477 -108.665000 291 28026ft 414kts
02-May-18 21:33 39.065215 -108.780138 291 28028ft 415kts
02-May-18 21:34 39.110858 -108.890384 291 28019ft 416kts
02-May-18 21:35 39.159354 -109.007415 291 28018ft 415kts
02-May-18 21:36 39.207946 -109.131338 289 28035ft 413kts
02-May-18 21:37 39.256438 -109.259451 290 28018ft 412kts
02-May-18 21:38 39.303294 -109.383479 290 28016ft 411kts
02-May-18 21:39 39.351569 -109.507025 291 28015ft 411kts
02-May-18 21:40 39.400646 -109.631109 291 28014ft 410kts
02-May-18 21:41 39.432701 -109.712205 290 28023ft 410kts
02-May-18 21:42 39.479704 -109.830604 292 28013ft 411kts
02-May-18 21:43 39.531333 -109.957114 292 28021ft 431kts
02-May-18 21:44 39.585619 -110.090751 292 28022ft 452kts
02-May-18 21:45 39.639889 -110.232998 292 28026ft 473kts
02-May-18 21:46 39.690600 -110.382751 292 28016ft 471kts
02-May-18 21:47 39.735155 -110.533678 291 26157ft 464kts
02-May-18 21:48 39.776006 -110.672792 291 24852ft 447kts
02-May-18 21:49 39.818053 -110.810698 293 23449ft 432kts
02-May-18 21:50 39.868140 -110.939465 297 21706ft 418kts
02-May-18 21:51 39.921132 -111.062334 297 19836ft 401kts
02-May-18 21:52 39.972793 -111.178169 297 19023ft 384kts
02-May-18 21:53 40.023728 -111.287488 299 19046ft 366kts
02-May-18 21:54 40.071844 -111.391859 298 19043ft 350kts
02-May-18 21:55 40.109050 -111.486950 294 19050ft 345kts
02-May-18 21:56 40.145945 -111.593024 293 19051ft 366kts
02-May-18 21:57 40.181874 -111.699535 292 19053ft 380kts
02-May-18 21:58 40.223953 -111.815982 296 19048ft 382kts
02-May-18 21:59 40.274598 -111.923931 311 18426ft 362kts
02-May-18 22:00 40.341679 -112.004193 327 16263ft 356kts
02-May-18 22:01 40.428232 -112.042083 348 14088ft 355kts
02-May-18 22:02 40.513647 -112.059702 353 14007ft 317kts
02-May-18 22:03 40.596859 -112.065251 356 12831ft 334kts
02-May-18 22:04 40.682736 -112.070588 356 11421ft 319kts
02-May-18 22:05 40.765579 -112.076615 356 10987ft 298kts
02-May-18 22:06 40.844520 -112.085966 353 9667ft 293kts
02-May-18 22:07 40.923379 -112.097064 353 8307ft 287kts
02-May-18 22:08 40.996568 -112.104341 16 7832ft 253kts
02-May-18 22:09 41.011983 -112.033735 137 7521ft 240kts
02-May-18 22:10 40.951616 -112.015868 176 7081ft 234kts
02-May-18 22:11 40.893041 -112.009201 175 5974ft 188kts
02-May-18 22:12 40.853181 -112.004740 175 5055ft 139kts
02-May-18 22:13 40.817723 -112.000472 176 4476ft 135kts
02-May-18 22:14 40.790340 -111.997255 176 4236ft 44kts
02-May-18 22:15 40.787299 -111.995488 133 4236ft 0kts
02-May-18 22:16 40.787424 -111.993770 355 4236ft 16kts
02-May-18 22:17 40.791102 -111.992055 85 4236ft 20kts
02-May-18 22:18 40.791641 -111.983358 111 4236ft 15kts
02-May-18 22:19 40.788474 -111.982827 151 4236ft 6kts
02-May-18 22:20 40.788265 -111.982036 102 4236ft 0kts

Navigation Log

Ident Type
Flight plan parsing failed, navigation log unavailable